»·PEaware :: N22CM KVNY-KSNA

N22CM :: KVNY-KSNA

FLIGHT INFORMATION

Flight Status: Arrived
Operator: Privately registered:
United States
More flights under this callsign
Pilot: Anthony H. (22875)
Aircraft: CESSNA 172 SKYHAWK
(C172)
More flights by this aircraft type
Origin: KVNY Van Nuys
United States
Destination: KSNA John Wayne-Orange Co
United States
More flights between these airports :: More routes between these airports
Route: KVNY KSNA
File this flight plan on PilotEdge
Remarks: CAT 10 LEG2 OF 2
Altitude:
(Current/Filed)
5,500ft
Speed:
(Current/Filed)
100kts
Departed: 10-Feb-19 07:18 PM
Arrived: 10-Feb-19 07:57 PM
Distance/Time
Traveled:
44nm/0:39
Distance/Time
To Go:
Arrived

Flight Plot

Page will automatically refresh every two minutes.


Map Options




Map Legend


Flown Route
Filed Route
Departure Airport
Arrival Airport
Navaid (VOR, NDB)
Fix

Horizontal Profiles

Position Reports

Time Latitude Longitude Heading Altitude Ground
Speed
10-Feb-19 19:10 34.211323 -118.492050 83 806ft 0kts
10-Feb-19 19:11 34.211323 -118.492050 83 806ft 0kts
10-Feb-19 19:12 34.213595 -118.491967 359 806ft 12kts
10-Feb-19 19:13 34.217716 -118.492310 354 806ft 16kts
10-Feb-19 19:14 34.218737 -118.492109 78 806ft 0kts
10-Feb-19 19:15 34.218737 -118.492109 78 806ft 0kts
10-Feb-19 19:16 34.218737 -118.492109 78 806ft 0kts
10-Feb-19 19:17 34.218785 -118.491701 82 806ft 0kts
10-Feb-19 19:18 34.207317 -118.490817 200 1249ft 70kts
10-Feb-19 19:19 34.194431 -118.508034 224 2293ft 72kts
10-Feb-19 19:20 34.184260 -118.527239 233 3429ft 59kts
10-Feb-19 19:21 34.174186 -118.543305 234 4312ft 66kts
10-Feb-19 19:21 34.163770 -118.558241 170 5033ft 77kts
10-Feb-19 19:22 34.162179 -118.530800 81 5480ft 120kts
10-Feb-19 19:24 34.167525 -118.483575 70 5849ft 118kts
10-Feb-19 19:24 34.174369 -118.445465 81 5162ft 131kts
10-Feb-19 19:25 34.202767 -118.436717 328 5456ft 126kts
10-Feb-19 19:26 34.217523 -118.476334 268 5451ft 134kts
10-Feb-19 19:27 34.190356 -118.501463 206 5432ft 119kts
10-Feb-19 19:28 34.161865 -118.518288 206 5434ft 109kts
10-Feb-19 19:29 34.134846 -118.531764 173 5437ft 104kts
10-Feb-19 19:30 34.109616 -118.522022 158 5435ft 104kts
10-Feb-19 19:31 34.082757 -118.508813 157 5435ft 104kts
10-Feb-19 19:32 34.055040 -118.494907 157 5438ft 116kts
10-Feb-19 19:33 34.024557 -118.479610 157 5435ft 117kts
10-Feb-19 19:34 33.994552 -118.464559 157 5435ft 117kts
10-Feb-19 19:35 33.964586 -118.449538 157 5436ft 117kts
10-Feb-19 19:36 33.934540 -118.433649 142 5433ft 118kts
10-Feb-19 19:37 33.910599 -118.406466 135 5435ft 118kts
10-Feb-19 19:38 33.887207 -118.378519 135 5435ft 118kts
10-Feb-19 19:39 33.863843 -118.350565 135 5435ft 118kts
10-Feb-19 19:40 33.840460 -118.322609 135 5420ft 119kts
10-Feb-19 19:41 33.816993 -118.294574 135 5417ft 118kts
10-Feb-19 19:42 33.793555 -118.266597 135 5417ft 118kts
10-Feb-19 19:43 33.770278 -118.238725 130 5415ft 118kts
10-Feb-19 19:44 33.752683 -118.205163 121 5417ft 118kts
10-Feb-19 19:45 33.735708 -118.171192 120 5417ft 118kts
10-Feb-19 19:46 33.724951 -118.134254 101 5417ft 118kts
10-Feb-19 19:47 33.725509 -118.094843 90 5417ft 118kts
10-Feb-19 19:48 33.725379 -118.055274 90 5417ft 118kts
10-Feb-19 19:49 33.725254 -118.015610 90 5417ft 118kts
10-Feb-19 19:50 33.725134 -117.976021 90 5417ft 118kts
10-Feb-19 19:51 33.726017 -117.938151 77 3852ft 83kts
10-Feb-19 19:52 33.721166 -117.911478 102 2401ft 83kts
10-Feb-19 19:53 33.718361 -117.886450 98 1611ft 69kts
10-Feb-19 19:54 33.706375 -117.868707 136 1222ft 72kts
10-Feb-19 19:55 33.688780 -117.860516 207 388ft 71kts
10-Feb-19 19:56 33.676020 -117.868734 212 60ft 22kts
10-Feb-19 19:57 33.675995 -117.869827 303 60ft 0kts
10-Feb-19 19:58 33.676246 -117.871096 208 60ft 0kts
10-Feb-19 19:59 33.676246 -117.871096 208 60ft 0kts
10-Feb-19 20:00 33.676246 -117.871096 208 60ft 0kts
10-Feb-19 20:01 33.676246 -117.871096 208 60ft 0kts
10-Feb-19 20:02 33.676246 -117.871096 208 60ft 0kts
10-Feb-19 20:03 33.676246 -117.871096 208 60ft 0kts
10-Feb-19 20:04 33.676246 -117.871096 208 60ft 0kts
10-Feb-19 20:05 33.676246 -117.871096 208 60ft 0kts
10-Feb-19 20:06 33.676246 -117.871096 208 60ft 0kts
10-Feb-19 20:07 33.676246 -117.871096 208 60ft 0kts
10-Feb-19 20:08 33.676246 -117.871096 208 60ft 0kts
10-Feb-19 20:09 33.676246 -117.871096 208 60ft 0kts
10-Feb-19 20:10 33.676246 -117.871096 208 60ft 0kts

Navigation Log

Ident Type
Flight plan parsing failed, navigation log unavailable